sensor_id;sensor_type;location;lat;lon;timestamp;temperature;humidity
25342;DHT22;13298;48.792;9.154;2022-07-24T00:00:24;20.30;99.90
25342;DHT22;13298;48.792;9.154;2022-07-24T00:02:50;20.30;99.90
25342;DHT22;13298;48.792;9.154;2022-07-24T00:05:16;20.40;99.90
25342;DHT22;13298;48.792;9.154;2022-07-24T00:07:41;20.30;99.90
25342;DHT22;13298;48.792;9.154;2022-07-24T00:10:09;20.40;99.90
25342;DHT22;13298;48.792;9.154;2022-07-24T00:12:35;20.40;99.90
25342;DHT22;13298;48.792;9.154;2022-07-24T00:15:01;20.50;99.90
25342;DHT22;13298;48.792;9.154;2022-07-24T00:17:26;20.40;99.90
25342;DHT22;13298;48.792;9.154;2022-07-24T00:19:52;20.40;99.90
25342;DHT22;13298;48.792;9.154;2022-07-24T00:22:18;20.40;99.90
25342;DHT22;13298;48.792;9.154;2022-07-24T00:24:44;20.40;99.90
25342;DHT22;13298;48.792;9.154;2022-07-24T00:27:09;20.40;99.90
25342;DHT22;13298;48.792;9.154;2022-07-24T00:29:35;20.40;99.90
25342;DHT22;13298;48.792;9.154;2022-07-24T00:32:01;20.40;99.90
25342;DHT22;13298;48.792;9.154;2022-07-24T00:34:26;20.40;99.90
25342;DHT22;13298;48.792;9.154;2022-07-24T00:36:52;20.40;99.90
25342;DHT22;13298;48.792;9.154;2022-07-24T00:39:18;20.50;99.90
25342;DHT22;13298;48.792;9.154;2022-07-24T00:41:44;20.60;99.90
25342;DHT22;13298;48.792;9.154;2022-07-24T00:44:12;20.70;99.90
25342;DHT22;13298;48.792;9.154;2022-07-24T00:46:40;20.80;99.90
25342;DHT22;13298;48.792;9.154;2022-07-24T00:49:12;20.80;99.90
25342;DHT22;13298;48.792;9.154;2022-07-24T00:51:40;20.80;99.90
25342;DHT22;13298;48.792;9.154;2022-07-24T00:54:08;20.70;99.90
25342;DHT22;13298;48.792;9.154;2022-07-24T00:56:35;20.70;99.90
25342;DHT22;13298;48.792;9.154;2022-07-24T00:59:01;20.60;99.90
25342;DHT22;13298;48.792;9.154;2022-07-24T01:01:27;20.60;99.90
25342;DHT22;13298;48.792;9.154;2022-07-24T01:03:53;20.60;99.90
25342;DHT22;13298;48.792;9.154;2022-07-24T01:06:19;20.60;99.90
25342;DHT22;13298;48.792;9.154;2022-07-24T01:08:46;20.60;99.90
25342;DHT22;13298;48.792;9.154;2022-07-24T01:11:12;20.70;99.90
25342;DHT22;13298;48.792;9.154;2022-07-24T01:13:39;20.60;99.90
25342;DHT22;13298;48.792;9.154;2022-07-24T01:16:06;20.60;99.90
25342;DHT22;13298;48.792;9.154;2022-07-24T01:18:32;20.60;99.90
25342;DHT22;13298;48.792;9.154;2022-07-24T01:20:58;20.50;99.90
25342;DHT22;13298;48.792;9.154;2022-07-24T01:23:24;20.50;99.90
25342;DHT22;13298;48.792;9.154;2022-07-24T01:25:50;20.50;99.90
25342;DHT22;13298;48.792;9.154;2022-07-24T01:28:17;20.40;99.90
25342;DHT22;13298;48.792;9.154;2022-07-24T01:30:43;20.40;99.90
25342;DHT22;13298;48.792;9.154;2022-07-24T01:33:09;20.40;99.90
25342;DHT22;13298;48.792;9.154;2022-07-24T01:35:34;20.40;99.90
25342;DHT22;13298;48.792;9.154;2022-07-24T01:38:00;20.30;99.90
25342;DHT22;13298;48.792;9.154;2022-07-24T01:40:26;20.20;99.90
25342;DHT22;13298;48.792;9.154;2022-07-24T01:42:52;20.10;99.90
25342;DHT22;13298;48.792;9.154;2022-07-24T01:45:18;20.10;99.90
25342;DHT22;13298;48.792;9.154;2022-07-24T01:47:44;20.00;99.90
25342;DHT22;13298;48.792;9.154;2022-07-24T01:50:11;19.90;99.90
25342;DHT22;13298;48.792;9.154;2022-07-24T01:52:38;19.80;99.90
25342;DHT22;13298;48.792;9.154;2022-07-24T01:55:05;19.70;99.90
25342;DHT22;13298;48.792;9.154;2022-07-24T01:57:32;19.70;99.90
25342;DHT22;13298;48.792;9.154;2022-07-24T01:59:58;19.60;99.90
25342;DHT22;13298;48.792;9.154;2022-07-24T02:02:26;19.60;99.90
25342;DHT22;13298;48.792;9.154;2022-07-24T02:04:52;19.50;99.90
25342;DHT22;13298;48.792;9.154;2022-07-24T02:07:18;19.40;99.90
25342;DHT22;13298;48.792;9.154;2022-07-24T02:09:44;19.40;99.90
25342;DHT22;13298;48.792;9.154;2022-07-24T02:12:10;19.30;99.90
25342;DHT22;13298;48.792;9.154;2022-07-24T02:14:36;19.20;99.90
25342;DHT22;13298;48.792;9.154;2022-07-24T02:17:01;19.20;99.90
25342;DHT22;13298;48.792;9.154;2022-07-24T02:19:27;19.20;99.90
25342;DHT22;13298;48.792;9.154;2022-07-24T02:21:53;19.10;99.90
25342;DHT22;13298;48.792;9.154;2022-07-24T02:24:19;19.10;99.90
25342;DHT22;13298;48.792;9.154;2022-07-24T02:26:44;19.10;99.90
25342;DHT22;13298;48.792;9.154;2022-07-24T02:29:10;19.10;99.90
25342;DHT22;13298;48.792;9.154;2022-07-24T02:31:36;19.00;99.90
25342;DHT22;13298;48.792;9.154;2022-07-24T02:34:02;19.00;99.90
25342;DHT22;13298;48.792;9.154;2022-07-24T02:36:27;19.00;99.90
25342;DHT22;13298;48.792;9.154;2022-07-24T02:38:53;19.00;99.90
25342;DHT22;13298;48.792;9.154;2022-07-24T02:41:19;19.00;99.90
25342;DHT22;13298;48.792;9.154;2022-07-24T02:43:45;18.90;99.90
25342;DHT22;13298;48.792;9.154;2022-07-24T02:46:11;18.90;99.90
25342;DHT22;13298;48.792;9.154;2022-07-24T02:48:36;18.80;99.90
25342;DHT22;13298;48.792;9.154;2022-07-24T02:51:02;18.80;99.90
25342;DHT22;13298;48.792;9.154;2022-07-24T02:53:28;18.80;99.90
25342;DHT22;13298;48.792;9.154;2022-07-24T02:55:54;18.80;99.90
25342;DHT22;13298;48.792;9.154;2022-07-24T02:58:20;18.70;99.90
25342;DHT22;13298;48.792;9.154;2022-07-24T03:00:45;18.70;99.90
25342;DHT22;13298;48.792;9.154;2022-07-24T03:03:11;18.70;99.90
25342;DHT22;13298;48.792;9.154;2022-07-24T03:05:37;18.70;99.90
25342;DHT22;13298;48.792;9.154;2022-07-24T03:08:03;18.70;99.90
25342;DHT22;13298;48.792;9.154;2022-07-24T03:10:29;18.60;99.90
25342;DHT22;13298;48.792;9.154;2022-07-24T03:12:55;18.60;99.90
25342;DHT22;13298;48.792;9.154;2022-07-24T03:15:21;18.60;99.90
25342;DHT22;13298;48.792;9.154;2022-07-24T03:17:56;18.60;99.90
25342;DHT22;13298;48.792;9.154;2022-07-24T03:20:23;18.60;99.90
25342;DHT22;13298;48.792;9.154;2022-07-24T03:22:51;18.60;99.90
25342;DHT22;13298;48.792;9.154;2022-07-24T03:25:17;18.50;99.90
25342;DHT22;13298;48.792;9.154;2022-07-24T03:27:43;18.50;99.90
25342;DHT22;13298;48.792;9.154;2022-07-24T03:30:10;18.50;99.90
25342;DHT22;13298;48.792;9.154;2022-07-24T03:32:36;18.40;99.90
25342;DHT22;13298;48.792;9.154;2022-07-24T03:35:03;18.40;99.90
25342;DHT22;13298;48.792;9.154;2022-07-24T03:37:29;18.40;99.90
25342;DHT22;13298;48.792;9.154;2022-07-24T03:39:55;18.40;99.90
25342;DHT22;13298;48.792;9.154;2022-07-24T03:42:21;18.30;99.90
25342;DHT22;13298;48.792;9.154;2022-07-24T03:44:46;18.30;99.90
25342;DHT22;13298;48.792;9.154;2022-07-24T03:47:12;18.30;99.90
25342;DHT22;13298;48.792;9.154;2022-07-24T03:49:38;18.30;99.90
25342;DHT22;13298;48.792;9.154;2022-07-24T03:52:04;18.30;99.90
25342;DHT22;13298;48.792;9.154;2022-07-24T03:54:30;18.30;99.90
25342;DHT22;13298;48.792;9.154;2022-07-24T03:56:55;18.30;99.90
25342;DHT22;13298;48.792;9.154;2022-07-24T03:59:21;18.30;99.90
25342;DHT22;13298;48.792;9.154;2022-07-24T04:01:47;18.30;99.90
25342;DHT22;13298;48.792;9.154;2022-07-24T04:04:13;18.30;99.90
25342;DHT22;13298;48.792;9.154;2022-07-24T04:06:38;18.30;99.90
25342;DHT22;13298;48.792;9.154;2022-07-24T04:09:06;18.30;99.90
25342;DHT22;13298;48.792;9.154;2022-07-24T04:11:31;18.30;99.90
25342;DHT22;13298;48.792;9.154;2022-07-24T04:13:57;18.30;99.90
25342;DHT22;13298;48.792;9.154;2022-07-24T04:16:23;18.40;99.90
25342;DHT22;13298;48.792;9.154;2022-07-24T04:18:49;18.40;99.90
25342;DHT22;13298;48.792;9.154;2022-07-24T04:21:15;18.40;99.90
25342;DHT22;13298;48.792;9.154;2022-07-24T04:23:41;18.50;99.90
25342;DHT22;13298;48.792;9.154;2022-07-24T04:26:07;18.40;99.90
25342;DHT22;13298;48.792;9.154;2022-07-24T04:28:33;18.50;99.90
25342;DHT22;13298;48.792;9.154;2022-07-24T04:30:59;18.50;99.90
25342;DHT22;13298;48.792;9.154;2022-07-24T04:33:25;18.60;99.90
25342;DHT22;13298;48.792;9.154;2022-07-24T04:35:50;18.60;99.90
25342;DHT22;13298;48.792;9.154;2022-07-24T04:38:16;18.70;99.90
25342;DHT22;13298;48.792;9.154;2022-07-24T04:40:42;18.70;99.90
25342;DHT22;13298;48.792;9.154;2022-07-24T04:43:08;18.70;99.90
25342;DHT22;13298;48.792;9.154;2022-07-24T04:45:34;18.80;99.90
25342;DHT22;13298;48.792;9.154;2022-07-24T04:47:59;18.90;99.90
25342;DHT22;13298;48.792;9.154;2022-07-24T04:50:25;19.00;99.90
25342;DHT22;13298;48.792;9.154;2022-07-24T04:52:51;19.00;99.90
25342;DHT22;13298;48.792;9.154;2022-07-24T04:55:16;19.10;99.90
25342;DHT22;13298;48.792;9.154;2022-07-24T04:57:42;19.10;99.90
25342;DHT22;13298;48.792;9.154;2022-07-24T05:00:11;19.10;99.90
25342;DHT22;13298;48.792;9.154;2022-07-24T05:02:37;19.20;99.90
25342;DHT22;13298;48.792;9.154;2022-07-24T05:05:03;19.30;99.90
25342;DHT22;13298;48.792;9.154;2022-07-24T05:07:29;19.30;99.90
25342;DHT22;13298;48.792;9.154;2022-07-24T05:09:55;19.40;99.90
25342;DHT22;13298;48.792;9.154;2022-07-24T05:12:22;19.50;99.90
25342;DHT22;13298;48.792;9.154;2022-07-24T05:14:48;19.60;99.90
25342;DHT22;13298;48.792;9.154;2022-07-24T05:17:14;19.70;99.90
25342;DHT22;13298;48.792;9.154;2022-07-24T05:19:40;19.70;99.90
25342;DHT22;13298;48.792;9.154;2022-07-24T05:22:06;19.80;99.90
25342;DHT22;13298;48.792;9.154;2022-07-24T05:27:08;20.00;99.90
25342;DHT22;13298;48.792;9.154;2022-07-24T05:29:34;20.10;99.90
25342;DHT22;13298;48.792;9.154;2022-07-24T05:32:00;20.30;99.90
25342;DHT22;13298;48.792;9.154;2022-07-24T05:34:25;20.40;99.90
25342;DHT22;13298;48.792;9.154;2022-07-24T05:36:51;20.60;99.90
25342;DHT22;13298;48.792;9.154;2022-07-24T05:39:17;20.70;99.90
25342;DHT22;13298;48.792;9.154;2022-07-24T05:41:42;20.80;99.90
25342;DHT22;13298;48.792;9.154;2022-07-24T05:44:08;21.00;99.90
25342;DHT22;13298;48.792;9.154;2022-07-24T05:46:34;21.30;99.90
25342;DHT22;13298;48.792;9.154;2022-07-24T05:49:00;21.60;99.90
25342;DHT22;13298;48.792;9.154;2022-07-24T05:51:26;21.90;99.90
25342;DHT22;13298;48.792;9.154;2022-07-24T05:53:52;22.30;99.90
25342;DHT22;13298;48.792;9.154;2022-07-24T05:56:17;22.60;99.90
25342;DHT22;13298;48.792;9.154;2022-07-24T05:58:43;22.80;99.90
25342;DHT22;13298;48.792;9.154;2022-07-24T06:01:09;23.00;99.90
25342;DHT22;13298;48.792;9.154;2022-07-24T06:03:34;23.00;99.90
25342;DHT22;13298;48.792;9.154;2022-07-24T06:06:00;23.00;99.90
25342;DHT22;13298;48.792;9.154;2022-07-24T06:08:26;23.10;99.90
25342;DHT22;13298;48.792;9.154;2022-07-24T06:10:52;23.00;99.90
25342;DHT22;13298;48.792;9.154;2022-07-24T06:13:17;23.10;99.90
25342;DHT22;13298;48.792;9.154;2022-07-24T06:15:43;23.10;99.90
25342;DHT22;13298;48.792;9.154;2022-07-24T06:18:09;23.10;99.90
25342;DHT22;13298;48.792;9.154;2022-07-24T06:20:34;23.10;99.90
25342;DHT22;13298;48.792;9.154;2022-07-24T06:23:00;23.20;99.90
25342;DHT22;13298;48.792;9.154;2022-07-24T06:25:26;23.20;99.90
25342;DHT22;13298;48.792;9.154;2022-07-24T06:27:51;23.30;99.90
25342;DHT22;13298;48.792;9.154;2022-07-24T06:30:24;23.30;99.90
25342;DHT22;13298;48.792;9.154;2022-07-24T06:32:53;23.40;99.90
25342;DHT22;13298;48.792;9.154;2022-07-24T06:35:20;23.50;99.90
25342;DHT22;13298;48.792;9.154;2022-07-24T06:37:45;23.50;99.90
25342;DHT22;13298;48.792;9.154;2022-07-24T06:40:12;23.50;99.90
25342;DHT22;13298;48.792;9.154;2022-07-24T06:42:38;23.60;99.90
25342;DHT22;13298;48.792;9.154;2022-07-24T06:45:04;23.70;99.90
25342;DHT22;13298;48.792;9.154;2022-07-24T06:47:30;23.80;99.90
25342;DHT22;13298;48.792;9.154;2022-07-24T06:49:56;23.90;99.90
25342;DHT22;13298;48.792;9.154;2022-07-24T06:52:22;24.00;99.90
25342;DHT22;13298;48.792;9.154;2022-07-24T06:54:48;24.00;99.90
25342;DHT22;13298;48.792;9.154;2022-07-24T06:57:14;24.10;99.90
25342;DHT22;13298;48.792;9.154;2022-07-24T06:59:40;24.20;99.90
25342;DHT22;13298;48.792;9.154;2022-07-24T07:02:06;24.30;99.90
25342;DHT22;13298;48.792;9.154;2022-07-24T07:04:31;24.40;99.90
25342;DHT22;13298;48.792;9.154;2022-07-24T07:06:57;24.50;99.90
25342;DHT22;13298;48.792;9.154;2022-07-24T07:09:23;24.50;99.90
25342;DHT22;13298;48.792;9.154;2022-07-24T07:11:48;24.60;99.90
25342;DHT22;13298;48.792;9.154;2022-07-24T07:14:14;24.60;99.90
25342;DHT22;13298;48.792;9.154;2022-07-24T07:16:40;24.60;99.60
25342;DHT22;13298;48.792;9.154;2022-07-24T07:19:05;24.60;99.60
25342;DHT22;13298;48.792;9.154;2022-07-24T07:21:31;24.70;99.90
25342;DHT22;13298;48.792;9.154;2022-07-24T07:23:57;24.80;99.70
25342;DHT22;13298;48.792;9.154;2022-07-24T07:26:23;24.90;99.60
25342;DHT22;13298;48.792;9.154;2022-07-24T07:28:49;25.00;99.50
25342;DHT22;13298;48.792;9.154;2022-07-24T07:31:14;25.10;99.20
25342;DHT22;13298;48.792;9.154;2022-07-24T07:33:40;25.20;98.60
25342;DHT22;13298;48.792;9.154;2022-07-24T07:36:06;25.30;98.10
25342;DHT22;13298;48.792;9.154;2022-07-24T07:38:34;25.40;98.00
25342;DHT22;13298;48.792;9.154;2022-07-24T07:41:00;25.50;98.00
25342;DHT22;13298;48.792;9.154;2022-07-24T07:43:26;25.60;97.50
25342;DHT22;13298;48.792;9.154;2022-07-24T07:45:52;25.60;97.40
25342;DHT22;13298;48.792;9.154;2022-07-24T07:48:17;25.80;97.40
25342;DHT22;13298;48.792;9.154;2022-07-24T07:50:43;25.90;97.30
25342;DHT22;13298;48.792;9.154;2022-07-24T07:53:09;25.90;96.90
25342;DHT22;13298;48.792;9.154;2022-07-24T07:55:35;26.00;96.90
25342;DHT22;13298;48.792;9.154;2022-07-24T07:58:00;26.00;96.50
25342;DHT22;13298;48.792;9.154;2022-07-24T08:00:26;26.00;96.60
25342;DHT22;13298;48.792;9.154;2022-07-24T08:02:52;26.20;96.30
25342;DHT22;13298;48.792;9.154;2022-07-24T08:05:18;26.30;96.70
25342;DHT22;13298;48.792;9.154;2022-07-24T08:07:44;26.30;96.70
25342;DHT22;13298;48.792;9.154;2022-07-24T08:10:10;26.40;96.70
25342;DHT22;13298;48.792;9.154;2022-07-24T08:12:35;26.50;96.80
25342;DHT22;13298;48.792;9.154;2022-07-24T08:15:01;26.50;96.50
25342;DHT22;13298;48.792;9.154;2022-07-24T08:17:27;26.50;96.40
25342;DHT22;13298;48.792;9.154;2022-07-24T08:19:53;26.60;96.20
25342;DHT22;13298;48.792;9.154;2022-07-24T08:22:18;26.70;96.40
25342;DHT22;13298;48.792;9.154;2022-07-24T08:24:44;26.70;94.80
25342;DHT22;13298;48.792;9.154;2022-07-24T08:27:10;26.70;94.60
25342;DHT22;13298;48.792;9.154;2022-07-24T08:29:35;26.70;94.20
25342;DHT22;13298;48.792;9.154;2022-07-24T08:32:01;26.70;94.10
25342;DHT22;13298;48.792;9.154;2022-07-24T08:34:27;26.70;93.30
25342;DHT22;13298;48.792;9.154;2022-07-24T08:36:53;26.70;93.60
25342;DHT22;13298;48.792;9.154;2022-07-24T08:39:18;26.80;93.50
25342;DHT22;13298;48.792;9.154;2022-07-24T08:41:44;26.70;93.40
25342;DHT22;13298;48.792;9.154;2022-07-24T08:44:11;26.70;93.40
25342;DHT22;13298;48.792;9.154;2022-07-24T08:46:41;26.70;93.60
25342;DHT22;13298;48.792;9.154;2022-07-24T08:49:10;26.80;93.60
25342;DHT22;13298;48.792;9.154;2022-07-24T08:51:39;26.90;92.60
25342;DHT22;13298;48.792;9.154;2022-07-24T08:54:07;26.80;92.40
25342;DHT22;13298;48.792;9.154;2022-07-24T08:56:33;26.80;91.80
25342;DHT22;13298;48.792;9.154;2022-07-24T08:59:01;26.80;91.70
25342;DHT22;13298;48.792;9.154;2022-07-24T09:01:28;26.90;92.20
25342;DHT22;13298;48.792;9.154;2022-07-24T09:03:54;27.00;91.90
25342;DHT22;13298;48.792;9.154;2022-07-24T09:06:19;27.20;92.30
25342;DHT22;13298;48.792;9.154;2022-07-24T09:09:01;27.30;91.90
25342;DHT22;13298;48.792;9.154;2022-07-24T09:11:28;27.40;91.50
25342;DHT22;13298;48.792;9.154;2022-07-24T09:14:00;27.60;90.90
25342;DHT22;13298;48.792;9.154;2022-07-24T09:16:46;27.70;90.70
25342;DHT22;13298;48.792;9.154;2022-07-24T09:19:12;27.90;89.70
25342;DHT22;13298;48.792;9.154;2022-07-24T09:21:40;28.00;89.20
25342;DHT22;13298;48.792;9.154;2022-07-24T09:24:20;28.30;89.40
25342;DHT22;13298;48.792;9.154;2022-07-24T09:26:56;28.70;86.30
25342;DHT22;13298;48.792;9.154;2022-07-24T09:29:24;29.00;84.50
25342;DHT22;13298;48.792;9.154;2022-07-24T09:34:23;29.30;82.90
25342;DHT22;13298;48.792;9.154;2022-07-24T09:37:00;29.30;82.50
25342;DHT22;13298;48.792;9.154;2022-07-24T09:39:32;29.10;80.50
25342;DHT22;13298;48.792;9.154;2022-07-24T09:42:00;28.80;81.20
25342;DHT22;13298;48.792;9.154;2022-07-24T09:44:27;28.60;82.30
25342;DHT22;13298;48.792;9.154;2022-07-24T09:49:33;28.30;83.60
25342;DHT22;13298;48.792;9.154;2022-07-24T09:52:13;28.00;84.30
25342;DHT22;13298;48.792;9.154;2022-07-24T09:54:44;27.80;88.60
25342;DHT22;13298;48.792;9.154;2022-07-24T09:57:23;27.50;85.00
25342;DHT22;13298;48.792;9.154;2022-07-24T09:59:56;27.30;85.80
25342;DHT22;13298;48.792;9.154;2022-07-24T10:02:28;27.20;86.20
25342;DHT22;13298;48.792;9.154;2022-07-24T10:04:55;27.20;87.00
25342;DHT22;13298;48.792;9.154;2022-07-24T10:07:23;27.10;86.90
25342;DHT22;13298;48.792;9.154;2022-07-24T10:09:54;27.10;87.00
25342;DHT22;13298;48.792;9.154;2022-07-24T10:12:23;27.10;86.80
25342;DHT22;13298;48.792;9.154;2022-07-24T10:14:57;27.10;86.60
25342;DHT22;13298;48.792;9.154;2022-07-24T10:20:11;27.30;85.40
25342;DHT22;13298;48.792;9.154;2022-07-24T10:23:02;27.50;83.60
25342;DHT22;13298;48.792;9.154;2022-07-24T10:25:30;27.70;84.70
25342;DHT22;13298;48.792;9.154;2022-07-24T10:28:08;28.00;83.60
25342;DHT22;13298;48.792;9.154;2022-07-24T10:30:39;28.30;83.00
25342;DHT22;13298;48.792;9.154;2022-07-24T10:33:06;28.60;82.60
25342;DHT22;13298;48.792;9.154;2022-07-24T10:35:33;28.80;81.10
25342;DHT22;13298;48.792;9.154;2022-07-24T10:41:12;29.40;79.60
25342;DHT22;13298;48.792;9.154;2022-07-24T10:43:40;29.60;79.10
25342;DHT22;13298;48.792;9.154;2022-07-24T10:48:40;29.80;77.30
25342;DHT22;13298;48.792;9.154;2022-07-24T10:59:14;29.90;77.70
25342;DHT22;13298;48.792;9.154;2022-07-24T11:01:44;30.10;75.90
25342;DHT22;13298;48.792;9.154;2022-07-24T11:09:12;30.30;72.40
25342;DHT22;13298;48.792;9.154;2022-07-24T11:12:03;29.90;73.30
25342;DHT22;13298;48.792;9.154;2022-07-24T11:20:19;28.40;76.10
25342;DHT22;13298;48.792;9.154;2022-07-24T11:22:48;28.10;75.90
25342;DHT22;13298;48.792;9.154;2022-07-24T11:25:22;28.00;77.30
25342;DHT22;13298;48.792;9.154;2022-07-24T11:27:51;27.70;78.60
25342;DHT22;13298;48.792;9.154;2022-07-24T11:30:29;27.60;79.10
25342;DHT22;13298;48.792;9.154;2022-07-24T11:32:57;27.60;78.90
25342;DHT22;13298;48.792;9.154;2022-07-24T11:35:31;27.70;77.90
25342;DHT22;13298;48.792;9.154;2022-07-24T11:38:00;27.90;76.50
25342;DHT22;13298;48.792;9.154;2022-07-24T11:40:27;28.10;76.90
25342;DHT22;13298;48.792;9.154;2022-07-24T11:43:05;28.30;77.20
25342;DHT22;13298;48.792;9.154;2022-07-24T11:45:32;28.50;75.70
25342;DHT22;13298;48.792;9.154;2022-07-24T11:47:58;28.60;74.80
25342;DHT22;13298;48.792;9.154;2022-07-24T11:50:25;28.70;75.90
25342;DHT22;13298;48.792;9.154;2022-07-24T11:52:52;28.90;76.10
25342;DHT22;13298;48.792;9.154;2022-07-24T11:55:23;29.10;76.50
25342;DHT22;13298;48.792;9.154;2022-07-24T11:57:55;29.50;75.50
25342;DHT22;13298;48.792;9.154;2022-07-24T12:00:26;29.70;73.40
25342;DHT22;13298;48.792;9.154;2022-07-24T12:02:55;29.80;70.30
25342;DHT22;13298;48.792;9.154;2022-07-24T12:05:35;29.90;71.10
25342;DHT22;13298;48.792;9.154;2022-07-24T12:08:14;29.80;70.60
25342;DHT22;13298;48.792;9.154;2022-07-24T12:10:42;29.80;71.10
25342;DHT22;13298;48.792;9.154;2022-07-24T12:13:08;29.60;71.00
25342;DHT22;13298;48.792;9.154;2022-07-24T12:15:37;29.50;71.50
25342;DHT22;13298;48.792;9.154;2022-07-24T12:18:07;29.30;70.10
25342;DHT22;13298;48.792;9.154;2022-07-24T12:20:37;29.20;70.20
25342;DHT22;13298;48.792;9.154;2022-07-24T12:23:08;29.10;70.50
25342;DHT22;13298;48.792;9.154;2022-07-24T12:25:38;29.10;71.50
25342;DHT22;13298;48.792;9.154;2022-07-24T12:28:12;29.30;71.40
25342;DHT22;13298;48.792;9.154;2022-07-24T12:30:44;29.60;70.20
25342;DHT22;13298;48.792;9.154;2022-07-24T12:35:58;30.40;67.40
25342;DHT22;13298;48.792;9.154;2022-07-24T12:38:36;30.60;65.90
25342;DHT22;13298;48.792;9.154;2022-07-24T12:41:14;30.50;66.60
25342;DHT22;13298;48.792;9.154;2022-07-24T12:43:59;30.30;66.80
25342;DHT22;13298;48.792;9.154;2022-07-24T12:46:44;30.00;68.50
25342;DHT22;13298;48.792;9.154;2022-07-24T12:49:17;29.70;69.50
25342;DHT22;13298;48.792;9.154;2022-07-24T12:51:57;29.50;68.90
25342;DHT22;13298;48.792;9.154;2022-07-24T12:54:34;29.50;68.50
25342;DHT22;13298;48.792;9.154;2022-07-24T12:57:02;29.50;66.70
25342;DHT22;13298;48.792;9.154;2022-07-24T12:59:35;29.60;67.00
25342;DHT22;13298;48.792;9.154;2022-07-24T13:02:11;29.80;67.50
25342;DHT22;13298;48.792;9.154;2022-07-24T13:04:50;30.10;67.00
25342;DHT22;13298;48.792;9.154;2022-07-24T13:07:23;30.40;65.00
25342;DHT22;13298;48.792;9.154;2022-07-24T13:09:50;30.60;66.90
25342;DHT22;13298;48.792;9.154;2022-07-24T13:12:17;30.70;65.80
25342;DHT22;13298;48.792;9.154;2022-07-24T13:14:44;30.80;66.40
25342;DHT22;13298;48.792;9.154;2022-07-24T13:17:11;30.70;65.40
25342;DHT22;13298;48.792;9.154;2022-07-24T13:19:44;30.70;65.50
25342;DHT22;13298;48.792;9.154;2022-07-24T13:22:11;30.70;65.90
25342;DHT22;13298;48.792;9.154;2022-07-24T13:24:37;30.70;65.40
25342;DHT22;13298;48.792;9.154;2022-07-24T13:27:04;30.70;65.10
25342;DHT22;13298;48.792;9.154;2022-07-24T13:29:31;30.70;63.90
25342;DHT22;13298;48.792;9.154;2022-07-24T13:31:57;30.70;64.80
25342;DHT22;13298;48.792;9.154;2022-07-24T13:34:23;30.70;63.30
25342;DHT22;13298;48.792;9.154;2022-07-24T13:36:49;30.70;64.20
25342;DHT22;13298;48.792;9.154;2022-07-24T13:39:15;30.60;63.50
25342;DHT22;13298;48.792;9.154;2022-07-24T13:41:41;30.60;61.90
25342;DHT22;13298;48.792;9.154;2022-07-24T13:44:07;30.60;62.80
25342;DHT22;13298;48.792;9.154;2022-07-24T13:46:34;30.60;62.10
25342;DHT22;13298;48.792;9.154;2022-07-24T13:49:01;30.60;62.30
25342;DHT22;13298;48.792;9.154;2022-07-24T13:51:29;30.50;61.60
25342;DHT22;13298;48.792;9.154;2022-07-24T13:53:55;30.60;64.90
25342;DHT22;13298;48.792;9.154;2022-07-24T13:56:21;30.60;61.40
25342;DHT22;13298;48.792;9.154;2022-07-24T13:58:48;30.60;61.50
25342;DHT22;13298;48.792;9.154;2022-07-24T14:01:14;30.60;63.30
25342;DHT22;13298;48.792;9.154;2022-07-24T14:03:42;30.60;62.90
25342;DHT22;13298;48.792;9.154;2022-07-24T14:06:09;30.70;62.20
25342;DHT22;13298;48.792;9.154;2022-07-24T14:08:37;30.80;61.10
25342;DHT22;13298;48.792;9.154;2022-07-24T14:11:03;30.70;61.40
25342;DHT22;13298;48.792;9.154;2022-07-24T14:13:29;30.50;62.00
25342;DHT22;13298;48.792;9.154;2022-07-24T14:15:55;30.30;61.90
25342;DHT22;13298;48.792;9.154;2022-07-24T14:18:21;30.40;61.70
25342;DHT22;13298;48.792;9.154;2022-07-24T14:20:46;30.50;61.70
25342;DHT22;13298;48.792;9.154;2022-07-24T14:23:12;30.70;60.90
25342;DHT22;13298;48.792;9.154;2022-07-24T14:25:38;30.80;60.00
25342;DHT22;13298;48.792;9.154;2022-07-24T14:28:04;30.90;59.90
25342;DHT22;13298;48.792;9.154;2022-07-24T14:30:31;31.00;60.00
25342;DHT22;13298;48.792;9.154;2022-07-24T14:32:57;31.20;59.40
25342;DHT22;13298;48.792;9.154;2022-07-24T14:35:23;31.40;58.40
25342;DHT22;13298;48.792;9.154;2022-07-24T14:37:48;31.50;58.10
25342;DHT22;13298;48.792;9.154;2022-07-24T14:40:14;31.50;58.70
25342;DHT22;13298;48.792;9.154;2022-07-24T14:42:40;31.60;58.80
25342;DHT22;13298;48.792;9.154;2022-07-24T14:45:06;31.80;58.10
25342;DHT22;13298;48.792;9.154;2022-07-24T14:47:32;31.80;56.50
25342;DHT22;13298;48.792;9.154;2022-07-24T14:49:57;31.80;56.60
25342;DHT22;13298;48.792;9.154;2022-07-24T14:52:24;31.90;56.80
25342;DHT22;13298;48.792;9.154;2022-07-24T14:54:50;32.00;56.70
25342;DHT22;13298;48.792;9.154;2022-07-24T14:57:16;32.00;56.10
25342;DHT22;13298;48.792;9.154;2022-07-24T14:59:42;32.00;56.40
25342;DHT22;13298;48.792;9.154;2022-07-24T15:02:09;32.10;55.60
25342;DHT22;13298;48.792;9.154;2022-07-24T15:04:35;32.20;56.10
25342;DHT22;13298;48.792;9.154;2022-07-24T15:07:01;32.20;54.70
25342;DHT22;13298;48.792;9.154;2022-07-24T15:09:27;32.30;54.80
25342;DHT22;13298;48.792;9.154;2022-07-24T15:11:52;32.50;55.00
25342;DHT22;13298;48.792;9.154;2022-07-24T15:14:18;32.50;55.50
25342;DHT22;13298;48.792;9.154;2022-07-24T15:16:44;32.70;55.00
25342;DHT22;13298;48.792;9.154;2022-07-24T15:19:10;32.70;53.90
25342;DHT22;13298;48.792;9.154;2022-07-24T15:21:36;32.80;53.90
25342;DHT22;13298;48.792;9.154;2022-07-24T15:24:03;32.80;53.30
25342;DHT22;13298;48.792;9.154;2022-07-24T15:26:30;32.80;53.20
25342;DHT22;13298;48.792;9.154;2022-07-24T15:28:56;32.80;53.50
25342;DHT22;13298;48.792;9.154;2022-07-24T15:31:22;32.90;53.30
25342;DHT22;13298;48.792;9.154;2022-07-24T15:33:48;32.80;52.50
25342;DHT22;13298;48.792;9.154;2022-07-24T15:36:14;32.80;52.10
25342;DHT22;13298;48.792;9.154;2022-07-24T15:38:40;32.80;52.60
25342;DHT22;13298;48.792;9.154;2022-07-24T15:41:07;32.90;52.50
25342;DHT22;13298;48.792;9.154;2022-07-24T15:43:32;33.00;53.50
25342;DHT22;13298;48.792;9.154;2022-07-24T15:45:58;33.10;53.70
25342;DHT22;13298;48.792;9.154;2022-07-24T15:48:24;33.00;52.90
25342;DHT22;13298;48.792;9.154;2022-07-24T15:50:50;32.80;52.20
25342;DHT22;13298;48.792;9.154;2022-07-24T15:53:16;32.70;53.10
25342;DHT22;13298;48.792;9.154;2022-07-24T15:55:42;32.70;53.30
25342;DHT22;13298;48.792;9.154;2022-07-24T15:58:08;32.70;53.50
25342;DHT22;13298;48.792;9.154;2022-07-24T16:00:34;32.70;52.90
25342;DHT22;13298;48.792;9.154;2022-07-24T16:03:00;32.50;53.10
25342;DHT22;13298;48.792;9.154;2022-07-24T16:05:26;32.50;53.30
25342;DHT22;13298;48.792;9.154;2022-07-24T16:07:53;32.50;53.30